createdAt,value
2023-02-08T00:02:09.452Z,103484.38
2023-02-08T00:04:36.541Z,103481.63
2023-02-08T00:07:04.314Z,103472.81
2023-02-08T00:09:31.465Z,103476.22
2023-02-08T00:11:58.630Z,103479.69
2023-02-08T00:14:25.840Z,103478.81
2023-02-08T00:16:52.993Z,103473.63
2023-02-08T00:19:20.228Z,103470.19
2023-02-08T00:21:47.790Z,103470.78
2023-02-08T00:24:14.958Z,103472.44
2023-02-08T00:26:42.108Z,103471.53
2023-02-08T00:29:09.259Z,103473.88
2023-02-08T00:31:36.668Z,103471.22
2023-02-08T00:34:03.919Z,103473.00
2023-02-08T00:36:31.030Z,103473.97
2023-02-08T00:38:58.179Z,103470.50
2023-02-08T00:41:25.388Z,103475.59
2023-02-08T00:43:52.550Z,103469.47
2023-02-08T00:46:20.599Z,103465.97
2023-02-08T00:48:47.845Z,103467.59
2023-02-08T00:51:15.293Z,103468.38
2023-02-08T00:53:44.570Z,103464.84
2023-02-08T00:56:13.708Z,103470.84
2023-02-08T00:58:41.624Z,103463.16
2023-02-08T01:01:09.432Z,103473.56
2023-02-08T01:03:37.893Z,103474.44
2023-02-08T01:06:07.796Z,103470.91
2023-02-08T01:08:34.970Z,103480.31
2023-02-08T01:11:04.916Z,103472.56
2023-02-08T01:13:32.079Z,103472.53
2023-02-08T01:16:10.248Z,103474.13
2023-02-08T01:18:38.719Z,103475.81
2023-02-08T01:21:08.607Z,103479.31
2023-02-08T01:23:36.290Z,103476.75
2023-02-08T01:26:04.561Z,103482.75
2023-02-08T01:28:31.830Z,103479.28
2023-02-08T01:30:59.350Z,103484.44
2023-02-08T01:33:26.508Z,103479.22
2023-02-08T01:35:53.801Z,103472.25
2023-02-08T01:38:21.105Z,103467.06
2023-02-08T01:40:48.304Z,103470.31
2023-02-08T01:43:26.197Z,103465.09
2023-02-08T01:45:54.004Z,103467.56
2023-02-08T01:48:25.784Z,103464.91
2023-02-08T01:51:09.753Z,103464.91
2023-02-08T01:53:37.215Z,103461.47
2023-02-08T01:56:07.163Z,103458.75
2023-02-08T01:58:36.681Z,103458.59
2023-02-08T02:01:05.407Z,103466.28
2023-02-08T02:03:34.216Z,103466.28
2023-02-08T02:06:04.838Z,103467.25
2023-02-08T02:08:32.115Z,103463.53
2023-02-08T02:10:59.321Z,103464.41
2023-02-08T02:13:27.415Z,103460.22
2023-02-08T02:15:55.013Z,103459.50
2023-02-08T02:18:25.603Z,103463.00
2023-02-08T02:21:16.945Z,103457.84
2023-02-08T02:24:05.732Z,103463.91
2023-02-08T02:26:50.906Z,103465.63
2023-02-08T02:29:23.834Z,103469.91
2023-02-08T02:32:12.507Z,103472.41
2023-02-08T02:34:47.590Z,103474.75
2023-02-08T02:37:49.563Z,103469.47
2023-02-08T02:40:43.109Z,103472.03
2023-02-08T02:43:48.842Z,103473.72
2023-02-08T02:46:24.378Z,103479.63
2023-02-08T02:48:54.597Z,103480.41
2023-02-08T02:51:27.397Z,103475.06
2023-02-08T02:54:06.898Z,103474.06
2023-02-08T02:56:37.400Z,103470.63
2023-02-08T02:59:06.932Z,103469.69
2023-02-08T03:01:35.123Z,103486.06
2023-02-08T03:04:16.753Z,103482.66
2023-02-08T03:06:59.121Z,103479.13
2023-02-08T03:09:35.299Z,103483.31
2023-02-08T03:12:05.500Z,103479.63
2023-02-08T03:14:51.916Z,103478.72
2023-02-08T03:17:28.114Z,103479.47
2023-02-08T03:19:57.970Z,103478.50
2023-02-08T03:22:44.432Z,103475.03
2023-02-08T03:25:21.636Z,103474.91
2023-02-08T03:28:07.636Z,103475.59
2023-02-08T03:30:45.251Z,103474.72
2023-02-08T03:33:34.931Z,103479.91
2023-02-08T03:36:05.248Z,103479.84
2023-02-08T03:38:36.688Z,103475.47
2023-02-08T03:41:07.071Z,103482.31
2023-02-08T03:43:37.844Z,103481.34
2023-02-08T03:46:25.938Z,103477.84
2023-02-08T03:49:03.288Z,103471.72
2023-02-08T03:51:31.251Z,103466.47
2023-02-08T03:54:01.532Z,103472.38
2023-02-08T03:57:03.663Z,103477.47
2023-02-08T03:59:37.349Z,103477.44
2023-02-08T04:02:07.436Z,103470.56
2023-02-08T04:04:37.112Z,103471.44
2023-02-08T04:07:05.108Z,103478.31
2023-02-08T04:09:32.252Z,103474.91
2023-02-08T04:11:59.434Z,103477.53
2023-02-08T04:14:26.586Z,103477.59
2023-02-08T04:16:53.768Z,103468.06
2023-02-08T04:19:20.952Z,103469.78
2023-02-08T04:21:48.199Z,103464.63
2023-02-08T04:24:15.410Z,103468.91
2023-02-08T04:26:42.574Z,103475.78
2023-02-08T04:29:09.744Z,103478.34
2023-02-08T04:31:37.031Z,103480.94
2023-02-08T04:34:04.476Z,103483.47
2023-02-08T04:36:31.721Z,103481.81
2023-02-08T04:38:58.901Z,103477.44
2023-02-08T04:41:26.097Z,103464.56
2023-02-08T04:43:53.400Z,103463.75
2023-02-08T04:46:20.703Z,103470.56
2023-02-08T04:48:47.937Z,103465.41
2023-02-08T04:51:15.140Z,103466.19
2023-02-08T04:53:42.328Z,103476.59
2023-02-08T04:56:09.484Z,103472.19
2023-02-08T04:58:36.788Z,103467.84
2023-02-08T05:01:07.992Z,103470.44
2023-02-08T05:03:35.683Z,103468.69
2023-02-08T05:06:03.193Z,103468.53
2023-02-08T05:08:30.622Z,103473.72
2023-02-08T05:10:58.022Z,103476.16
2023-02-08T05:13:25.814Z,103485.59
2023-02-08T05:15:52.987Z,103488.13
2023-02-08T05:18:20.141Z,103475.19
2023-02-08T05:20:57.733Z,103478.63
2023-02-08T05:23:25.551Z,103480.34
2023-02-08T05:25:53.084Z,103476.88
2023-02-08T05:28:20.356Z,103484.53
2023-02-08T05:30:47.877Z,103479.34
2023-02-08T05:33:15.205Z,103482.75
2023-02-08T05:35:42.521Z,103491.28
2023-02-08T05:38:09.655Z,103488.69
2023-02-08T05:40:36.904Z,103489.50
2023-02-08T05:43:04.043Z,103493.75
2023-02-08T05:45:31.166Z,103491.78
2023-02-08T05:47:58.551Z,103492.41
2023-02-08T05:50:25.741Z,103495.81
2023-02-08T05:52:52.929Z,103500.03
2023-02-08T05:55:20.176Z,103493.94
2023-02-08T05:57:47.293Z,103492.03
2023-02-08T06:00:15.117Z,103491.09
2023-02-08T06:02:42.310Z,103495.38
2023-02-08T06:05:09.425Z,103497.81
2023-02-08T06:07:36.676Z,103502.03
2023-02-08T06:10:04.235Z,103497.78
2023-02-08T06:12:31.363Z,103513.09
2023-02-08T06:14:58.551Z,103512.97
2023-02-08T06:17:25.684Z,103513.09
2023-02-08T06:19:52.903Z,103516.19
2023-02-08T06:22:20.113Z,103510.97
2023-02-08T06:24:48.614Z,103516.13
2023-02-08T06:27:15.769Z,103522.22
2023-02-08T06:29:42.934Z,103519.63
2023-02-08T06:32:10.213Z,103519.63
2023-02-08T06:34:37.460Z,103518.75
2023-02-08T06:37:05.576Z,103523.09
2023-02-08T06:39:32.882Z,103520.44
2023-02-08T06:42:00.119Z,103524.72
2023-02-08T06:44:27.371Z,103519.63
2023-02-08T06:46:54.592Z,103518.81
2023-02-08T06:49:21.831Z,103528.03
2023-02-08T06:51:49.587Z,103522.84
2023-02-08T06:54:16.770Z,103527.16
2023-02-08T06:56:44.420Z,103531.59
2023-02-08T06:59:11.785Z,103524.78
2023-02-08T07:01:39.110Z,103524.78
2023-02-08T07:04:06.234Z,103529.88
2023-02-08T07:06:33.769Z,103524.66
2023-02-08T07:09:02.573Z,103529.75
2023-02-08T07:11:29.825Z,103532.31
2023-02-08T07:13:57.027Z,103530.56
2023-02-08T07:16:24.608Z,103520.16
2023-02-08T07:18:51.773Z,103521.13
2023-02-08T07:21:19.105Z,103526.03
2023-02-08T07:23:46.217Z,103513.16
2023-02-08T07:26:17.211Z,103513.16
2023-02-08T07:28:44.429Z,103513.00
2023-02-08T07:31:17.107Z,103516.47
2023-02-08T07:33:44.648Z,103521.63
2023-02-08T07:36:11.946Z,103519.09
2023-02-08T07:38:39.398Z,103522.50
2023-02-08T07:41:09.736Z,103521.66
2023-02-08T07:46:25.123Z,103532.31
2023-02-08T07:48:53.450Z,103540.06
2023-02-08T07:51:20.634Z,103541.81
2023-02-08T07:53:47.837Z,103540.25
2023-02-08T07:56:15.034Z,103542.88
2023-02-08T07:58:42.205Z,103544.72
2023-02-08T08:01:21.340Z,103548.19
2023-02-08T08:03:50.949Z,103546.63
2023-02-08T08:06:21.807Z,103553.69
2023-02-08T08:08:49.131Z,103547.84
2023-02-08T08:11:17.495Z,103551.44
2023-02-08T08:13:44.796Z,103559.28
2023-02-08T08:16:11.988Z,103568.97
2023-02-08T08:18:39.117Z,103563.94
2023-02-08T08:21:06.602Z,103562.44
2023-02-08T08:23:33.852Z,103560.91
2023-02-08T08:26:01.061Z,103565.41
2023-02-08T08:28:28.272Z,103568.16
2023-02-08T08:30:57.503Z,103567.44
2023-02-08T08:33:24.712Z,103566.78
2023-02-08T08:35:51.939Z,103565.91
2023-02-08T08:38:19.046Z,103572.13
2023-02-08T08:40:46.230Z,103564.53
2023-02-08T08:43:13.386Z,103563.06
2023-02-08T08:45:40.548Z,103555.41
2023-02-08T08:48:07.704Z,103548.72
2023-02-08T08:50:34.826Z,103545.50
2023-02-08T08:53:01.952Z,103539.75
2023-02-08T08:55:29.171Z,103539.94
2023-02-08T08:57:56.430Z,103540.22
2023-02-08T09:00:23.578Z,103534.31
2023-02-08T09:02:50.695Z,103544.75
2023-02-08T09:05:17.886Z,103540.53
2023-02-08T09:07:45.030Z,103542.53
2023-02-08T09:10:12.258Z,103535.03
2023-02-08T09:12:39.471Z,103536.88
2023-02-08T09:15:06.922Z,103533.59
2023-02-08T09:17:34.065Z,103524.19
2023-02-08T09:20:02.310Z,103525.22
2023-02-08T09:22:30.410Z,103528.84
2023-02-08T09:24:57.614Z,103532.50
2023-02-08T09:27:24.737Z,103534.47
2023-02-08T09:29:51.845Z,103534.72
2023-02-08T09:32:21.116Z,103539.31
2023-02-08T09:34:48.272Z,103547.16
2023-02-08T09:37:17.306Z,103555.06
2023-02-08T09:39:44.784Z,103556.28
2023-02-08T09:42:12.859Z,103549.50
2023-02-08T09:44:47.934Z,103553.13
2023-02-08T09:47:29.267Z,103556.59
2023-02-08T09:50:05.161Z,103556.00
2023-02-08T09:52:40.938Z,103547.75
2023-02-08T09:55:15.737Z,103547.00
2023-02-08T09:57:43.666Z,103536.81
2023-02-08T10:00:16.768Z,103537.78
2023-02-08T10:02:44.469Z,103531.22
2023-02-08T10:05:20.660Z,103527.97
2023-02-08T10:07:47.890Z,103523.69
2023-02-08T10:10:42.511Z,103521.47
2023-02-08T10:13:41.645Z,103514.81
2023-02-08T10:16:36.896Z,103506.50
2023-02-08T10:19:19.333Z,103490.38
2023-02-08T10:22:01.413Z,103498.25
2023-02-08T10:25:00.870Z,103483.78
2023-02-08T10:27:53.994Z,103483.00
2023-02-08T10:30:41.634Z,103485.84
2023-02-08T10:33:32.424Z,103475.50
2023-02-08T10:35:59.655Z,103484.25
2023-02-08T10:38:45.468Z,103474.69
2023-02-08T10:41:19.650Z,103467.13
2023-02-08T10:43:53.910Z,103466.31
2023-02-08T10:46:29.965Z,103464.78
2023-02-08T10:49:00.018Z,103460.63
2023-02-08T10:51:28.541Z,103463.44
2023-02-08T10:53:55.865Z,103463.56
2023-02-08T10:56:39.102Z,103459.47
2023-02-08T10:59:22.120Z,103454.44
2023-02-08T11:01:49.950Z,103451.09
2023-02-08T11:04:18.002Z,103450.50
2023-02-08T11:06:46.599Z,103442.22
2023-02-08T11:09:30.712Z,103444.94
2023-02-08T11:11:59.846Z,103439.06
2023-02-08T11:14:45.638Z,103440.19
2023-02-08T11:17:31.794Z,103445.66
2023-02-08T11:19:59.498Z,103446.28
2023-02-08T11:22:28.164Z,103437.34
2023-02-08T11:25:00.104Z,103440.03
2023-02-08T11:27:31.812Z,103444.22
2023-02-08T11:30:13.994Z,103446.00
2023-02-08T11:32:42.390Z,103443.59
2023-02-08T11:35:21.906Z,103439.25
2023-02-08T11:37:57.387Z,103439.63
2023-02-08T11:40:30.085Z,103428.66
2023-02-08T11:42:57.695Z,103421.09
2023-02-08T11:45:29.820Z,103426.56
2023-02-08T11:47:57.153Z,103432.03
2023-02-08T11:50:27.710Z,103427.16
2023-02-08T11:53:03.102Z,103423.03
2023-02-08T11:55:33.028Z,103422.59
2023-02-08T11:58:23.671Z,103429.94
2023-02-08T12:01:03.659Z,103413.50
2023-02-08T12:03:34.819Z,103419.03
2023-02-08T12:06:18.813Z,103417.53
2023-02-08T12:09:13.392Z,103416.00
2023-02-08T12:11:45.584Z,103413.81
2023-02-08T12:14:27.346Z,103414.25
2023-02-08T12:17:20.118Z,103431.06
2023-02-08T12:20:08.769Z,103426.78
2023-02-08T12:23:05.261Z,103422.41
2023-02-08T12:25:46.261Z,103428.44
2023-02-08T12:28:42.454Z,103441.44
2023-02-08T12:31:18.416Z,103431.69
2023-02-08T12:34:05.079Z,103430.66
2023-02-08T12:36:37.806Z,103430.31
2023-02-08T12:39:58.120Z,103423.00
2023-02-08T12:43:07.255Z,103421.84
2023-02-08T12:45:41.254Z,103428.53
2023-02-08T12:49:05.952Z,103427.50
2023-02-08T12:51:44.789Z,103420.53
2023-02-08T12:54:26.739Z,103418.91
2023-02-08T12:57:02.031Z,103429.00
2023-02-08T12:59:43.774Z,103421.38
2023-02-08T13:02:31.162Z,103417.56
2023-02-08T13:05:01.957Z,103411.13
2023-02-08T13:07:42.516Z,103410.13
2023-02-08T13:10:29.793Z,103404.13
2023-02-08T13:12:59.800Z,103400.75
2023-02-08T13:15:36.503Z,103396.72
2023-02-08T13:18:20.593Z,103398.56
2023-02-08T13:20:51.831Z,103386.78
2023-02-08T13:23:26.407Z,103388.53
2023-02-08T13:25:56.662Z,103386.94
2023-02-08T13:28:25.505Z,103385.47
2023-02-08T13:30:54.754Z,103380.19
2023-02-08T13:33:30.260Z,103375.06
2023-02-08T13:35:57.928Z,103364.75
2023-02-08T13:38:35.671Z,103364.63
2023-02-08T13:41:22.675Z,103368.16
2023-02-08T13:43:53.654Z,103369.13
2023-02-08T13:46:22.531Z,103369.91
2023-02-08T13:48:56.623Z,103360.53
2023-02-08T13:51:30.940Z,103366.53
2023-02-08T13:53:58.086Z,103363.78
2023-02-08T13:56:37.374Z,103367.41
2023-02-08T13:59:10.152Z,103359.34
2023-02-08T14:01:37.420Z,103373.94
2023-02-08T14:04:07.748Z,103362.13
2023-02-08T14:07:01.875Z,103361.72
2023-02-08T14:09:49.271Z,103364.06
2023-02-08T14:12:21.886Z,103350.47
2023-02-08T14:15:28.011Z,103352.63
2023-02-08T14:17:58.338Z,103348.44
2023-02-08T14:20:34.013Z,103357.38
2023-02-08T14:23:03.950Z,103346.25
2023-02-08T14:25:39.752Z,103342.72
2023-02-08T14:28:08.412Z,103345.34
2023-02-08T14:30:37.778Z,103332.13
2023-02-08T14:33:04.852Z,103339.34
2023-02-08T14:35:34.156Z,103335.16
2023-02-08T14:38:23.967Z,103332.63
2023-02-08T14:41:00.912Z,103325.72
2023-02-08T14:43:42.410Z,103332.78
2023-02-08T14:46:37.433Z,103320.63
2023-02-08T14:49:16.893Z,103325.03
2023-02-08T14:52:04.438Z,103329.59
2023-02-08T14:54:44.948Z,103319.09
2023-02-08T14:57:29.389Z,103319.09
2023-02-08T14:59:59.953Z,103316.50
2023-02-08T15:02:31.617Z,103310.44
2023-02-08T15:04:59.716Z,103320.97
2023-02-08T15:07:38.592Z,103311.38
2023-02-08T15:10:11.257Z,103307.97
2023-02-08T15:12:40.723Z,103307.13
2023-02-08T15:15:23.030Z,103308.06
2023-02-08T15:17:51.884Z,103305.47
2023-02-08T15:20:24.415Z,103294.97
2023-02-08T15:23:18.301Z,103293.19
2023-02-08T15:25:55.129Z,103287.88
2023-02-08T15:28:25.012Z,103280.81
2023-02-08T15:30:56.097Z,103286.88
2023-02-08T15:33:23.319Z,103285.91
2023-02-08T15:36:17.866Z,103274.50
2023-02-08T15:38:46.405Z,103280.53
2023-02-08T15:41:16.649Z,103272.63
2023-02-08T15:43:43.833Z,103269.09
2023-02-08T15:46:23.620Z,103267.28
2023-02-08T15:48:51.490Z,103263.72
2023-02-08T15:51:22.930Z,103262.72
2023-02-08T15:53:55.191Z,103259.16
2023-02-08T15:56:36.327Z,103256.44
2023-02-08T15:59:05.765Z,103250.22
2023-02-08T16:01:33.318Z,103250.13
2023-02-08T16:04:06.016Z,103247.41
2023-02-08T16:06:38.993Z,103257.75
2023-02-08T16:09:06.791Z,103250.72
2023-02-08T16:11:35.718Z,103261.94
2023-02-08T16:14:04.493Z,103261.81
2023-02-08T16:16:42.259Z,103253.88
2023-02-08T16:19:32.165Z,103257.19
2023-02-08T16:22:21.001Z,103253.59
2023-02-08T16:24:50.780Z,103245.66
2023-02-08T16:27:18.002Z,103244.59
2023-02-08T16:29:46.588Z,103246.13
2023-02-08T16:32:32.191Z,103251.97
2023-02-08T16:35:01.399Z,103252.66
2023-02-08T16:37:31.489Z,103255.13
2023-02-08T16:40:27.668Z,103255.78
2023-02-08T16:43:15.564Z,103247.75
2023-02-08T16:45:42.780Z,103249.34
2023-02-08T16:48:33.259Z,103244.75
2023-02-08T16:51:01.496Z,103254.13
2023-02-08T16:53:41.333Z,103250.63
2023-02-08T16:56:11.477Z,103249.59
2023-02-08T16:58:38.996Z,103241.66
2023-02-08T17:01:06.976Z,103245.03
2023-02-08T17:03:36.579Z,103238.00
2023-02-08T17:06:04.027Z,103241.38
2023-02-08T17:08:32.996Z,103242.16
2023-02-08T17:11:00.361Z,103236.91
2023-02-08T17:13:27.655Z,103238.59
2023-02-08T17:15:55.005Z,103238.50
2023-02-08T17:18:22.727Z,103232.38
2023-02-08T17:20:50.781Z,103232.22
2023-02-08T17:23:18.209Z,103231.22
2023-02-08T17:25:45.914Z,103233.66
2023-02-08T17:28:20.211Z,103229.25
2023-02-08T17:30:48.770Z,103241.25
2023-02-08T17:33:18.978Z,103241.06
2023-02-08T17:35:48.271Z,103236.59
2023-02-08T17:38:16.219Z,103229.59
2023-02-08T17:40:43.882Z,103227.00
2023-02-08T17:43:11.903Z,103224.31
2023-02-08T17:45:40.245Z,103224.31
2023-02-08T17:48:08.016Z,103226.84
2023-02-08T17:50:35.651Z,103216.34
2023-02-08T17:53:03.921Z,103211.16
2023-02-08T17:55:31.321Z,103216.34
2023-02-08T17:57:58.554Z,103206.72
2023-02-08T18:00:26.134Z,103204.13
2023-02-08T18:02:55.289Z,103204.13
2023-02-08T18:05:25.117Z,103204.88
2023-02-08T18:07:53.549Z,103195.09
2023-02-08T18:10:21.230Z,103194.13
2023-02-08T18:12:48.693Z,103192.44
2023-02-08T18:15:19.904Z,103196.69
2023-02-08T18:17:47.833Z,103192.25
2023-02-08T18:20:16.195Z,103187.00
2023-02-08T18:22:43.941Z,103196.47
2023-02-08T18:25:12.419Z,103186.03
2023-02-08T18:27:40.228Z,103186.00
2023-02-08T18:30:09.500Z,103188.50
2023-02-08T18:32:36.790Z,103188.47
2023-02-08T18:35:05.013Z,103181.47
2023-02-08T18:37:32.373Z,103177.00
2023-02-08T18:40:00.243Z,103177.78
2023-02-08T18:42:27.600Z,103180.19
2023-02-08T18:44:54.734Z,103174.88
2023-02-08T18:47:22.624Z,103170.44
2023-02-08T18:49:57.392Z,103164.25
2023-02-08T18:52:24.653Z,103159.97
2023-02-08T18:54:52.106Z,103160.84
2023-02-08T18:57:19.609Z,103156.53
2023-02-08T18:59:46.836Z,103163.34
2023-02-08T19:02:20.730Z,103148.63
2023-02-08T19:04:47.991Z,103146.88
2023-02-08T19:07:15.219Z,103144.13
2023-02-08T19:09:43.829Z,103132.00
2023-02-08T19:12:15.148Z,103133.66
2023-02-08T19:14:43.614Z,103130.28
2023-02-08T19:17:12.409Z,103132.81
2023-02-08T19:19:41.698Z,103126.63
2023-02-08T19:22:08.830Z,103122.28
2023-02-08T19:24:35.986Z,103123.06
2023-02-08T19:27:03.253Z,103118.72
2023-02-08T19:29:32.574Z,103110.81
2023-02-08T19:31:59.850Z,103107.22
2023-02-08T19:34:26.966Z,103103.69
2023-02-08T19:36:54.634Z,103103.63
2023-02-08T19:39:24.472Z,103103.56
2023-02-08T19:41:52.902Z,103100.13
2023-02-08T19:44:21.057Z,103105.22
2023-02-08T19:46:50.055Z,103096.50
2023-02-08T19:49:17.488Z,103103.50
2023-02-08T19:51:44.722Z,103098.28
2023-02-08T19:54:14.228Z,103086.97
2023-02-08T19:56:41.954Z,103083.44
2023-02-08T19:59:18.210Z,103087.72
2023-02-08T20:01:46.155Z,103074.47
2023-02-08T20:04:14.237Z,103076.06
2023-02-08T20:06:42.794Z,103076.13
2023-02-08T20:09:10.030Z,103077.84
2023-02-08T20:11:51.204Z,103070.88
2023-02-08T20:14:23.472Z,103080.31
2023-02-08T20:16:50.590Z,103074.22
2023-02-08T20:19:17.923Z,103072.47
2023-02-08T20:21:45.523Z,103069.00
2023-02-08T20:24:13.026Z,103065.56
2023-02-08T20:26:42.234Z,103071.56
2023-02-08T20:29:10.345Z,103078.38
2023-02-08T20:31:39.192Z,103076.69
2023-02-08T20:34:07.723Z,103071.47
2023-02-08T20:36:44.141Z,103074.06
2023-02-08T20:39:15.114Z,103068.00
2023-02-08T20:41:45.757Z,103065.38
2023-02-08T20:44:14.654Z,103069.63
2023-02-08T20:46:43.002Z,103067.03
2023-02-08T20:49:13.738Z,103060.88
2023-02-08T20:51:41.040Z,103066.81
2023-02-08T20:54:08.451Z,103051.28
2023-02-08T20:56:36.102Z,103047.75
2023-02-08T20:59:16.075Z,103052.94
2023-02-08T21:01:44.577Z,103042.56
2023-02-08T21:04:13.107Z,103037.25
2023-02-08T21:06:44.303Z,103051.03
2023-02-08T21:09:14.381Z,103047.56
2023-02-08T21:11:41.564Z,103044.19
2023-02-08T21:14:09.169Z,103042.44
2023-02-08T21:16:36.431Z,103034.66
2023-02-08T21:19:03.964Z,103037.09
2023-02-08T21:21:31.287Z,103035.38
2023-02-08T21:23:58.847Z,103032.78
2023-02-08T21:26:26.624Z,103022.38
2023-02-08T21:28:55.361Z,103024.94
2023-02-08T21:31:23.993Z,103022.34
2023-02-08T21:33:51.768Z,103025.69
2023-02-08T21:36:21.511Z,103014.34
2023-02-08T21:38:48.717Z,103021.22
2023-02-08T21:41:20.351Z,103010.78
2023-02-08T21:43:48.624Z,103007.34
2023-02-08T21:46:16.845Z,103000.47
2023-02-08T21:49:03.289Z,102994.38
2023-02-08T21:51:49.630Z,102992.56
2023-02-08T21:54:37.171Z,102983.91
2023-02-08T21:57:08.743Z,102982.06
2023-02-08T21:59:37.257Z,102975.88
2023-02-08T22:02:05.845Z,102977.69
2023-02-08T22:04:36.410Z,102975.97
2023-02-08T22:07:04.707Z,102968.28
2023-02-08T22:09:31.972Z,102967.38
2023-02-08T22:11:59.247Z,102962.16
2023-02-08T22:14:26.455Z,102968.19
2023-02-08T22:16:53.650Z,102963.88
2023-02-08T22:19:20.882Z,102957.78
2023-02-08T22:21:48.118Z,102962.16
2023-02-08T22:24:15.302Z,102956.03
2023-02-08T22:26:43.881Z,102962.91
2023-02-08T22:29:11.072Z,102963.88
2023-02-08T22:31:38.316Z,102962.91
2023-02-08T22:34:05.607Z,102957.72
2023-02-08T22:36:32.759Z,102941.28
2023-02-08T22:39:00.008Z,102943.00
2023-02-08T22:41:27.307Z,102943.75
2023-02-08T22:43:54.517Z,102947.16
2023-02-08T22:46:21.770Z,102949.78
2023-02-08T22:48:49.108Z,102942.81
2023-02-08T22:51:18.635Z,102941.03
2023-02-08T22:53:46.138Z,102937.50
2023-02-08T22:56:14.877Z,102932.34
2023-02-08T22:58:42.272Z,102927.94
2023-02-08T23:01:14.990Z,102923.44
2023-02-08T23:03:42.952Z,102929.34
2023-02-08T23:06:15.142Z,102920.69
2023-02-08T23:08:42.714Z,102915.56
2023-02-08T23:11:36.382Z,102922.41
2023-02-08T23:14:27.809Z,102924.97
2023-02-08T23:21:51.040Z,102922.28
2023-02-08T23:24:18.469Z,102925.69
2023-02-08T23:26:45.650Z,102923.88
2023-02-08T23:29:12.764Z,102928.03
2023-02-08T23:31:40.835Z,102925.38
2023-02-08T23:34:08.043Z,102916.78
2023-02-08T23:36:35.218Z,102914.28
2023-02-08T23:39:03.367Z,102909.97
2023-02-08T23:41:30.586Z,102908.22
2023-02-08T23:43:57.849Z,102902.22
2023-02-08T23:46:27.560Z,102901.41
2023-02-08T23:48:55.345Z,102907.38
2023-02-08T23:51:24.418Z,102914.22
2023-02-08T23:53:52.357Z,102904.56
2023-02-08T23:56:25.024Z,102908.91
2023-02-08T23:58:54.646Z,102907.91
